sensor_id;sensor_type;location;lat;lon;timestamp;P1;durP1;ratioP1;P2;durP2;ratioP2
15764;SDS011;7983;50.744;7.086;2023-03-16T00:00:18;2.43;;;1.80;;
15764;SDS011;7983;50.744;7.086;2023-03-16T00:02:45;4.20;;;2.00;;
15764;SDS011;7983;50.744;7.086;2023-03-16T00:05:13;2.13;;;1.80;;
15764;SDS011;7983;50.744;7.086;2023-03-16T00:07:39;3.40;;;2.27;;
15764;SDS011;7983;50.744;7.086;2023-03-16T00:10:08;3.63;;;1.90;;
15764;SDS011;7983;50.744;7.086;2023-03-16T00:12:38;4.27;;;2.07;;
15764;SDS011;7983;50.744;7.086;2023-03-16T00:15:07;2.63;;;1.80;;
15764;SDS011;7983;50.744;7.086;2023-03-16T00:17:36;2.63;;;2.00;;
15764;SDS011;7983;50.744;7.086;2023-03-16T00:20:04;2.67;;;2.10;;
15764;SDS011;7983;50.744;7.086;2023-03-16T00:22:34;4.20;;;2.30;;
15764;SDS011;7983;50.744;7.086;2023-03-16T00:25:00;3.40;;;1.97;;
15764;SDS011;7983;50.744;7.086;2023-03-16T00:27:26;2.83;;;2.00;;
15764;SDS011;7983;50.744;7.086;2023-03-16T00:29:52;2.13;;;1.90;;
15764;SDS011;7983;50.744;7.086;2023-03-16T00:32:25;2.47;;;1.90;;
15764;SDS011;7983;50.744;7.086;2023-03-16T00:34:53;3.90;;;2.10;;
15764;SDS011;7983;50.744;7.086;2023-03-16T00:37:19;3.53;;;2.13;;
15764;SDS011;7983;50.744;7.086;2023-03-16T00:39:48;3.73;;;1.83;;
15764;SDS011;7983;50.744;7.086;2023-03-16T00:42:15;3.40;;;2.00;;
15764;SDS011;7983;50.744;7.086;2023-03-16T00:44:42;5.07;;;2.20;;
15764;SDS011;7983;50.744;7.086;2023-03-16T00:47:09;4.07;;;2.57;;
15764;SDS011;7983;50.744;7.086;2023-03-16T00:49:41;3.50;;;2.40;;
15764;SDS011;7983;50.744;7.086;2023-03-16T00:52:08;3.03;;;2.30;;
15764;SDS011;7983;50.744;7.086;2023-03-16T00:54:38;4.03;;;2.50;;
15764;SDS011;7983;50.744;7.086;2023-03-16T00:57:10;3.60;;;2.60;;
15764;SDS011;7983;50.744;7.086;2023-03-16T00:59:37;4.63;;;2.57;;
15764;SDS011;7983;50.744;7.086;2023-03-16T01:02:06;5.23;;;2.67;;
15764;SDS011;7983;50.744;7.086;2023-03-16T01:04:36;3.60;;;2.50;;
15764;SDS011;7983;50.744;7.086;2023-03-16T01:07:08;4.10;;;2.50;;
15764;SDS011;7983;50.744;7.086;2023-03-16T01:09:36;3.87;;;2.60;;
15764;SDS011;7983;50.744;7.086;2023-03-16T01:12:04;4.03;;;2.37;;
15764;SDS011;7983;50.744;7.086;2023-03-16T01:14:36;3.47;;;2.23;;
15764;SDS011;7983;50.744;7.086;2023-03-16T01:17:03;3.30;;;2.30;;
15764;SDS011;7983;50.744;7.086;2023-03-16T01:19:30;2.83;;;2.20;;
15764;SDS011;7983;50.744;7.086;2023-03-16T01:21:58;4.37;;;2.40;;
15764;SDS011;7983;50.744;7.086;2023-03-16T01:24:24;3.10;;;2.20;;
15764;SDS011;7983;50.744;7.086;2023-03-16T01:26:50;2.33;;;2.00;;
15764;SDS011;7983;50.744;7.086;2023-03-16T01:29:16;4.43;;;2.60;;
15764;SDS011;7983;50.744;7.086;2023-03-16T01:31:44;3.20;;;2.10;;
15764;SDS011;7983;50.744;7.086;2023-03-16T01:34:10;2.60;;;2.07;;
15764;SDS011;7983;50.744;7.086;2023-03-16T01:36:43;2.73;;;1.93;;
15764;SDS011;7983;50.744;7.086;2023-03-16T01:39:12;3.30;;;2.00;;
15764;SDS011;7983;50.744;7.086;2023-03-16T01:41:39;4.10;;;2.33;;
15764;SDS011;7983;50.744;7.086;2023-03-16T01:44:06;2.90;;;2.13;;
15764;SDS011;7983;50.744;7.086;2023-03-16T01:46:36;2.20;;;1.80;;
15764;SDS011;7983;50.744;7.086;2023-03-16T01:49:07;3.03;;;2.13;;
15764;SDS011;7983;50.744;7.086;2023-03-16T01:56:43;5.20;;;2.13;;
15764;SDS011;7983;50.744;7.086;2023-03-16T02:00:19;2.50;;;1.90;;
15764;SDS011;7983;50.744;7.086;2023-03-16T02:02:34;2.37;;;1.70;;
15764;SDS011;7983;50.744;7.086;2023-03-16T02:05:05;2.60;;;1.90;;
15764;SDS011;7983;50.744;7.086;2023-03-16T02:07:45;2.27;;;1.80;;
15764;SDS011;7983;50.744;7.086;2023-03-16T02:10:17;2.77;;;1.80;;
15764;SDS011;7983;50.744;7.086;2023-03-16T02:12:44;2.77;;;2.03;;
15764;SDS011;7983;50.744;7.086;2023-03-16T02:15:13;4.10;;;2.30;;
15764;SDS011;7983;50.744;7.086;2023-03-16T02:17:39;2.50;;;1.70;;
15764;SDS011;7983;50.744;7.086;2023-03-16T02:22:52;2.70;;;1.90;;
15764;SDS011;7983;50.744;7.086;2023-03-16T02:25:20;2.40;;;1.47;;
15764;SDS011;7983;50.744;7.086;2023-03-16T02:30:43;2.23;;;1.67;;
15764;SDS011;7983;50.744;7.086;2023-03-16T02:33:14;2.07;;;1.67;;
15764;SDS011;7983;50.744;7.086;2023-03-16T02:35:43;2.63;;;1.57;;
15764;SDS011;7983;50.744;7.086;2023-03-16T02:38:11;2.27;;;1.53;;
15764;SDS011;7983;50.744;7.086;2023-03-16T02:40:37;2.20;;;1.80;;
15764;SDS011;7983;50.744;7.086;2023-03-16T02:43:12;3.13;;;1.60;;
15764;SDS011;7983;50.744;7.086;2023-03-16T02:45:46;1.87;;;1.63;;
15764;SDS011;7983;50.744;7.086;2023-03-16T02:49:02;2.10;;;1.80;;
15764;SDS011;7983;50.744;7.086;2023-03-16T02:51:13;1.80;;;1.50;;
15764;SDS011;7983;50.744;7.086;2023-03-16T02:53:39;3.07;;;1.80;;
15764;SDS011;7983;50.744;7.086;2023-03-16T02:56:04;2.30;;;1.50;;
15764;SDS011;7983;50.744;7.086;2023-03-16T02:58:30;2.73;;;1.97;;
15764;SDS011;7983;50.744;7.086;2023-03-16T03:00:56;4.00;;;2.20;;
15764;SDS011;7983;50.744;7.086;2023-03-16T03:03:24;2.53;;;1.87;;
15764;SDS011;7983;50.744;7.086;2023-03-16T03:05:52;4.27;;;2.33;;
15764;SDS011;7983;50.744;7.086;2023-03-16T03:08:18;2.90;;;1.80;;
15764;SDS011;7983;50.744;7.086;2023-03-16T03:10:48;3.07;;;2.20;;
15764;SDS011;7983;50.744;7.086;2023-03-16T03:13:14;2.73;;;1.80;;
15764;SDS011;7983;50.744;7.086;2023-03-16T03:15:42;3.90;;;2.00;;
15764;SDS011;7983;50.744;7.086;2023-03-16T03:18:10;3.60;;;2.40;;
15764;SDS011;7983;50.744;7.086;2023-03-16T03:20:35;4.13;;;2.37;;
15764;SDS011;7983;50.744;7.086;2023-03-16T03:23:01;2.67;;;2.10;;
15764;SDS011;7983;50.744;7.086;2023-03-16T03:25:29;3.60;;;2.27;;
15764;SDS011;7983;50.744;7.086;2023-03-16T03:27:58;2.83;;;2.20;;
15764;SDS011;7983;50.744;7.086;2023-03-16T03:30:26;2.27;;;2.00;;
15764;SDS011;7983;50.744;7.086;2023-03-16T03:32:54;2.80;;;2.00;;
15764;SDS011;7983;50.744;7.086;2023-03-16T03:35:27;2.63;;;2.10;;
15764;SDS011;7983;50.744;7.086;2023-03-16T03:37:53;3.13;;;2.33;;
15764;SDS011;7983;50.744;7.086;2023-03-16T03:40:19;5.13;;;2.70;;
15764;SDS011;7983;50.744;7.086;2023-03-16T03:42:45;3.47;;;2.23;;
15764;SDS011;7983;50.744;7.086;2023-03-16T03:45:11;3.00;;;2.23;;
15764;SDS011;7983;50.744;7.086;2023-03-16T03:47:39;4.47;;;2.07;;
15764;SDS011;7983;50.744;7.086;2023-03-16T03:50:05;3.20;;;2.07;;
15764;SDS011;7983;50.744;7.086;2023-03-16T03:52:37;5.83;;;2.47;;
15764;SDS011;7983;50.744;7.086;2023-03-16T03:55:05;2.37;;;2.03;;
15764;SDS011;7983;50.744;7.086;2023-03-16T03:57:31;3.37;;;2.20;;
15764;SDS011;7983;50.744;7.086;2023-03-16T03:59:57;2.77;;;2.20;;
15764;SDS011;7983;50.744;7.086;2023-03-16T04:02:25;3.60;;;2.17;;
15764;SDS011;7983;50.744;7.086;2023-03-16T04:04:53;3.17;;;2.27;;
15764;SDS011;7983;50.744;7.086;2023-03-16T04:07:18;4.20;;;2.30;;
15764;SDS011;7983;50.744;7.086;2023-03-16T04:09:44;3.40;;;2.30;;
15764;SDS011;7983;50.744;7.086;2023-03-16T04:12:09;2.90;;;2.37;;
15764;SDS011;7983;50.744;7.086;2023-03-16T04:14:37;3.07;;;2.00;;
15764;SDS011;7983;50.744;7.086;2023-03-16T04:17:07;3.30;;;2.27;;
15764;SDS011;7983;50.744;7.086;2023-03-16T04:19:33;3.27;;;2.20;;
15764;SDS011;7983;50.744;7.086;2023-03-16T04:21:59;2.87;;;2.27;;
15764;SDS011;7983;50.744;7.086;2023-03-16T04:24:24;3.23;;;2.40;;
15764;SDS011;7983;50.744;7.086;2023-03-16T04:26:55;2.90;;;2.33;;
15764;SDS011;7983;50.744;7.086;2023-03-16T04:29:20;3.57;;;2.43;;
15764;SDS011;7983;50.744;7.086;2023-03-16T04:31:46;3.67;;;2.20;;
15764;SDS011;7983;50.744;7.086;2023-03-16T04:34:12;3.70;;;2.60;;
15764;SDS011;7983;50.744;7.086;2023-03-16T04:36:40;3.17;;;2.67;;
15764;SDS011;7983;50.744;7.086;2023-03-16T04:39:09;4.00;;;2.60;;
15764;SDS011;7983;50.744;7.086;2023-03-16T04:41:34;3.60;;;2.37;;
15764;SDS011;7983;50.744;7.086;2023-03-16T04:44:00;3.37;;;2.50;;
15764;SDS011;7983;50.744;7.086;2023-03-16T04:46:26;3.50;;;2.37;;
15764;SDS011;7983;50.744;7.086;2023-03-16T04:48:55;4.50;;;2.30;;
15764;SDS011;7983;50.744;7.086;2023-03-16T04:51:22;5.20;;;2.60;;
15764;SDS011;7983;50.744;7.086;2023-03-16T04:53:54;2.80;;;2.27;;
15764;SDS011;7983;50.744;7.086;2023-03-16T04:56:19;4.07;;;2.47;;
15764;SDS011;7983;50.744;7.086;2023-03-16T04:58:46;3.20;;;2.33;;
15764;SDS011;7983;50.744;7.086;2023-03-16T05:01:17;3.30;;;2.67;;
15764;SDS011;7983;50.744;7.086;2023-03-16T05:03:47;2.77;;;2.37;;
15764;SDS011;7983;50.744;7.086;2023-03-16T05:06:13;3.60;;;2.33;;
15764;SDS011;7983;50.744;7.086;2023-03-16T05:08:39;3.33;;;2.40;;
15764;SDS011;7983;50.744;7.086;2023-03-16T05:11:08;2.43;;;2.20;;
15764;SDS011;7983;50.744;7.086;2023-03-16T05:13:36;3.53;;;2.80;;
15764;SDS011;7983;50.744;7.086;2023-03-16T05:16:02;3.57;;;2.40;;
15764;SDS011;7983;50.744;7.086;2023-03-16T05:18:28;3.30;;;2.60;;
15764;SDS011;7983;50.744;7.086;2023-03-16T05:20:54;3.10;;;2.60;;
15764;SDS011;7983;50.744;7.086;2023-03-16T05:23:20;4.43;;;3.00;;
15764;SDS011;7983;50.744;7.086;2023-03-16T05:25:47;4.00;;;2.43;;
15764;SDS011;7983;50.744;7.086;2023-03-16T05:28:15;3.57;;;2.73;;
15764;SDS011;7983;50.744;7.086;2023-03-16T05:30:42;3.30;;;2.67;;
15764;SDS011;7983;50.744;7.086;2023-03-16T05:33:12;5.00;;;3.00;;
15764;SDS011;7983;50.744;7.086;2023-03-16T05:35:38;4.00;;;3.20;;
15764;SDS011;7983;50.744;7.086;2023-03-16T05:38:04;4.23;;;3.30;;
15764;SDS011;7983;50.744;7.086;2023-03-16T05:40:29;3.87;;;3.10;;
15764;SDS011;7983;50.744;7.086;2023-03-16T05:42:57;3.63;;;2.93;;
15764;SDS011;7983;50.744;7.086;2023-03-16T05:45:24;4.00;;;3.00;;
15764;SDS011;7983;50.744;7.086;2023-03-16T05:47:52;3.97;;;3.00;;
15764;SDS011;7983;50.744;7.086;2023-03-16T05:50:21;4.03;;;2.90;;
15764;SDS011;7983;50.744;7.086;2023-03-16T05:52:48;4.90;;;3.40;;
15764;SDS011;7983;50.744;7.086;2023-03-16T05:55:14;3.77;;;3.10;;
15764;SDS011;7983;50.744;7.086;2023-03-16T05:57:41;4.37;;;3.20;;
15764;SDS011;7983;50.744;7.086;2023-03-16T06:00:07;4.40;;;3.30;;
15764;SDS011;7983;50.744;7.086;2023-03-16T06:02:39;4.90;;;2.50;;
15764;SDS011;7983;50.744;7.086;2023-03-16T06:05:10;4.53;;;3.07;;
15764;SDS011;7983;50.744;7.086;2023-03-16T06:07:36;4.90;;;3.00;;
15764;SDS011;7983;50.744;7.086;2023-03-16T06:10:02;4.37;;;3.00;;
15764;SDS011;7983;50.744;7.086;2023-03-16T06:12:29;4.60;;;3.10;;
15764;SDS011;7983;50.744;7.086;2023-03-16T06:14:54;3.53;;;2.80;;
15764;SDS011;7983;50.744;7.086;2023-03-16T06:17:20;3.63;;;3.10;;
15764;SDS011;7983;50.744;7.086;2023-03-16T06:19:48;3.73;;;2.67;;
15764;SDS011;7983;50.744;7.086;2023-03-16T06:22:14;4.17;;;2.77;;
15764;SDS011;7983;50.744;7.086;2023-03-16T06:24:42;3.70;;;2.80;;
15764;SDS011;7983;50.744;7.086;2023-03-16T06:27:10;3.77;;;2.83;;
15764;SDS011;7983;50.744;7.086;2023-03-16T06:29:39;5.40;;;3.33;;
15764;SDS011;7983;50.744;7.086;2023-03-16T06:32:04;4.63;;;3.10;;
15764;SDS011;7983;50.744;7.086;2023-03-16T06:34:30;6.27;;;3.43;;
15764;SDS011;7983;50.744;7.086;2023-03-16T06:36:56;4.13;;;3.03;;
15764;SDS011;7983;50.744;7.086;2023-03-16T06:39:23;5.40;;;3.23;;
15764;SDS011;7983;50.744;7.086;2023-03-16T06:41:51;4.67;;;3.00;;
15764;SDS011;7983;50.744;7.086;2023-03-16T06:44:17;4.93;;;3.30;;
15764;SDS011;7983;50.744;7.086;2023-03-16T06:46:43;5.10;;;3.20;;
15764;SDS011;7983;50.744;7.086;2023-03-16T06:49:08;3.73;;;3.30;;
15764;SDS011;7983;50.744;7.086;2023-03-16T06:51:36;4.10;;;3.17;;
15764;SDS011;7983;50.744;7.086;2023-03-16T06:54:04;4.30;;;2.87;;
15764;SDS011;7983;50.744;7.086;2023-03-16T06:56:30;5.40;;;3.40;;
15764;SDS011;7983;50.744;7.086;2023-03-16T06:58:56;4.17;;;3.50;;
15764;SDS011;7983;50.744;7.086;2023-03-16T07:01:21;4.63;;;3.33;;
15764;SDS011;7983;50.744;7.086;2023-03-16T07:03:52;4.00;;;3.20;;
15764;SDS011;7983;50.744;7.086;2023-03-16T07:06:18;6.13;;;3.30;;
15764;SDS011;7983;50.744;7.086;2023-03-16T07:08:46;3.70;;;3.13;;
15764;SDS011;7983;50.744;7.086;2023-03-16T07:11:14;4.30;;;3.30;;
15764;SDS011;7983;50.744;7.086;2023-03-16T07:13:40;4.10;;;3.30;;
15764;SDS011;7983;50.744;7.086;2023-03-16T07:16:06;5.17;;;3.20;;
15764;SDS011;7983;50.744;7.086;2023-03-16T07:18:32;3.93;;;3.10;;
15764;SDS011;7983;50.744;7.086;2023-03-16T07:21:01;4.13;;;3.13;;
15764;SDS011;7983;50.744;7.086;2023-03-16T07:23:27;3.63;;;3.03;;
15764;SDS011;7983;50.744;7.086;2023-03-16T07:25:53;4.67;;;3.50;;
15764;SDS011;7983;50.744;7.086;2023-03-16T07:28:19;4.10;;;3.13;;
15764;SDS011;7983;50.744;7.086;2023-03-16T07:30:45;5.70;;;3.43;;
15764;SDS011;7983;50.744;7.086;2023-03-16T07:33:14;6.13;;;3.57;;
15764;SDS011;7983;50.744;7.086;2023-03-16T07:35:39;4.07;;;3.10;;
15764;SDS011;7983;50.744;7.086;2023-03-16T07:38:07;4.33;;;3.17;;
15764;SDS011;7983;50.744;7.086;2023-03-16T07:40:36;4.70;;;3.67;;
15764;SDS011;7983;50.744;7.086;2023-03-16T07:43:03;5.13;;;3.50;;
15764;SDS011;7983;50.744;7.086;2023-03-16T07:45:29;4.47;;;2.93;;
15764;SDS011;7983;50.744;7.086;2023-03-16T07:47:55;4.53;;;3.10;;
15764;SDS011;7983;50.744;7.086;2023-03-16T07:50:21;4.27;;;3.40;;
15764;SDS011;7983;50.744;7.086;2023-03-16T07:52:49;3.60;;;3.30;;
15764;SDS011;7983;50.744;7.086;2023-03-16T07:55:18;4.03;;;3.27;;
15764;SDS011;7983;50.744;7.086;2023-03-16T07:57:44;4.33;;;3.27;;
15764;SDS011;7983;50.744;7.086;2023-03-16T08:00:11;3.93;;;3.00;;
15764;SDS011;7983;50.744;7.086;2023-03-16T08:02:40;4.43;;;3.40;;
15764;SDS011;7983;50.744;7.086;2023-03-16T08:05:06;4.13;;;3.43;;
15764;SDS011;7983;50.744;7.086;2023-03-16T08:07:34;3.73;;;3.30;;
15764;SDS011;7983;50.744;7.086;2023-03-16T08:10:00;4.37;;;3.30;;
15764;SDS011;7983;50.744;7.086;2023-03-16T08:12:26;5.63;;;3.57;;
15764;SDS011;7983;50.744;7.086;2023-03-16T08:14:51;5.10;;;3.40;;
15764;SDS011;7983;50.744;7.086;2023-03-16T08:17:18;4.17;;;3.50;;
15764;SDS011;7983;50.744;7.086;2023-03-16T08:19:44;4.47;;;3.60;;
15764;SDS011;7983;50.744;7.086;2023-03-16T08:22:12;3.53;;;2.90;;
15764;SDS011;7983;50.744;7.086;2023-03-16T08:24:38;5.77;;;3.70;;
15764;SDS011;7983;50.744;7.086;2023-03-16T08:27:06;5.27;;;3.90;;
15764;SDS011;7983;50.744;7.086;2023-03-16T08:29:31;4.10;;;3.50;;
15764;SDS011;7983;50.744;7.086;2023-03-16T08:31:58;4.50;;;3.80;;
15764;SDS011;7983;50.744;7.086;2023-03-16T08:34:25;4.23;;;3.50;;
15764;SDS011;7983;50.744;7.086;2023-03-16T08:36:55;4.70;;;3.43;;
15764;SDS011;7983;50.744;7.086;2023-03-16T08:39:23;4.83;;;3.90;;
15764;SDS011;7983;50.744;7.086;2023-03-16T08:41:50;5.13;;;3.80;;
15764;SDS011;7983;50.744;7.086;2023-03-16T08:44:16;5.50;;;4.50;;
15764;SDS011;7983;50.744;7.086;2023-03-16T08:46:47;5.17;;;4.23;;
15764;SDS011;7983;50.744;7.086;2023-03-16T08:49:13;4.70;;;3.97;;
15764;SDS011;7983;50.744;7.086;2023-03-16T08:51:39;6.40;;;3.93;;
15764;SDS011;7983;50.744;7.086;2023-03-16T08:54:07;4.27;;;3.80;;
15764;SDS011;7983;50.744;7.086;2023-03-16T08:56:34;4.30;;;3.47;;
15764;SDS011;7983;50.744;7.086;2023-03-16T08:59:02;5.37;;;4.03;;
15764;SDS011;7983;50.744;7.086;2023-03-16T09:01:28;4.87;;;4.00;;
15764;SDS011;7983;50.744;7.086;2023-03-16T09:03:56;5.47;;;3.80;;
15764;SDS011;7983;50.744;7.086;2023-03-16T09:06:24;5.43;;;4.33;;
15764;SDS011;7983;50.744;7.086;2023-03-16T09:08:50;4.53;;;4.03;;
15764;SDS011;7983;50.744;7.086;2023-03-16T09:11:17;5.57;;;4.27;;
15764;SDS011;7983;50.744;7.086;2023-03-16T09:13:43;5.97;;;4.33;;
15764;SDS011;7983;50.744;7.086;2023-03-16T09:16:10;5.90;;;4.30;;
15764;SDS011;7983;50.744;7.086;2023-03-16T09:18:42;5.33;;;4.50;;
15764;SDS011;7983;50.744;7.086;2023-03-16T09:21:08;5.07;;;3.93;;
15764;SDS011;7983;50.744;7.086;2023-03-16T09:23:37;5.77;;;4.73;;
15764;SDS011;7983;50.744;7.086;2023-03-16T09:26:03;5.27;;;4.03;;
15764;SDS011;7983;50.744;7.086;2023-03-16T09:28:34;5.40;;;4.40;;
15764;SDS011;7983;50.744;7.086;2023-03-16T09:31:02;5.10;;;4.20;;
15764;SDS011;7983;50.744;7.086;2023-03-16T09:33:30;5.70;;;4.00;;
15764;SDS011;7983;50.744;7.086;2023-03-16T09:35:59;4.30;;;3.63;;
15764;SDS011;7983;50.744;7.086;2023-03-16T09:38:27;4.17;;;3.47;;
15764;SDS011;7983;50.744;7.086;2023-03-16T09:40:57;4.73;;;4.07;;
15764;SDS011;7983;50.744;7.086;2023-03-16T09:43:32;5.27;;;4.07;;
15764;SDS011;7983;50.744;7.086;2023-03-16T09:46:31;5.13;;;3.97;;
15764;SDS011;7983;50.744;7.086;2023-03-16T09:49:05;5.32;;;4.10;;
15764;SDS011;7983;50.744;7.086;2023-03-16T09:54:08;4.07;;;3.47;;
15764;SDS011;7983;50.744;7.086;2023-03-16T09:56:43;5.45;;;4.00;;
15764;SDS011;7983;50.744;7.086;2023-03-16T09:59:11;5.65;;;4.50;;
15764;SDS011;7983;50.744;7.086;2023-03-16T10:06:37;5.05;;;4.20;;
15764;SDS011;7983;50.744;7.086;2023-03-16T10:12:10;5.68;;;4.40;;
15764;SDS011;7983;50.744;7.086;2023-03-16T10:20:01;4.97;;;4.00;;
15764;SDS011;7983;50.744;7.086;2023-03-16T10:22:38;4.47;;;3.50;;
15764;SDS011;7983;50.744;7.086;2023-03-16T10:27:39;4.40;;;3.70;;
15764;SDS011;7983;50.744;7.086;2023-03-16T10:30:31;4.45;;;3.95;;
15764;SDS011;7983;50.744;7.086;2023-03-16T10:33:03;5.53;;;4.10;;
15764;SDS011;7983;50.744;7.086;2023-03-16T10:35:50;6.20;;;4.03;;
15764;SDS011;7983;50.744;7.086;2023-03-16T10:38:40;4.80;;;3.85;;
15764;SDS011;7983;50.744;7.086;2023-03-16T10:44:30;5.82;;;3.65;;
15764;SDS011;7983;50.744;7.086;2023-03-16T10:46:40;5.85;;;3.97;;
15764;SDS011;7983;50.744;7.086;2023-03-16T10:49:24;5.93;;;4.07;;
15764;SDS011;7983;50.744;7.086;2023-03-16T10:52:13;5.35;;;4.22;;
15764;SDS011;7983;50.744;7.086;2023-03-16T10:54:45;6.35;;;3.72;;
15764;SDS011;7983;50.744;7.086;2023-03-16T10:57:30;5.35;;;4.00;;
15764;SDS011;7983;50.744;7.086;2023-03-16T11:00:07;4.78;;;3.80;;
15764;SDS011;7983;50.744;7.086;2023-03-16T11:02:48;5.28;;;3.90;;
15764;SDS011;7983;50.744;7.086;2023-03-16T11:07:50;4.57;;;3.60;;
15764;SDS011;7983;50.744;7.086;2023-03-16T11:10:34;4.60;;;3.08;;
15764;SDS011;7983;50.744;7.086;2023-03-16T11:13:04;3.92;;;3.10;;
15764;SDS011;7983;50.744;7.086;2023-03-16T11:15:46;3.72;;;3.28;;
15764;SDS011;7983;50.744;7.086;2023-03-16T11:24:05;4.60;;;3.35;;
15764;SDS011;7983;50.744;7.086;2023-03-16T11:26:41;4.03;;;3.53;;
15764;SDS011;7983;50.744;7.086;2023-03-16T11:32:04;5.38;;;3.08;;
15764;SDS011;7983;50.744;7.086;2023-03-16T11:34:39;3.78;;;3.35;;
15764;SDS011;7983;50.744;7.086;2023-03-16T11:39:55;4.75;;;3.20;;
15764;SDS011;7983;50.744;7.086;2023-03-16T11:44:54;3.80;;;2.92;;
15764;SDS011;7983;50.744;7.086;2023-03-16T11:58:16;4.10;;;2.63;;
15764;SDS011;7983;50.744;7.086;2023-03-16T12:01:12;4.07;;;2.63;;
15764;SDS011;7983;50.744;7.086;2023-03-16T12:12:20;4.85;;;2.72;;
15764;SDS011;7983;50.744;7.086;2023-03-16T12:15:07;2.90;;;2.60;;
15764;SDS011;7983;50.744;7.086;2023-03-16T12:17:38;3.85;;;2.42;;
15764;SDS011;7983;50.744;7.086;2023-03-16T12:20:12;3.35;;;2.50;;
15764;SDS011;7983;50.744;7.086;2023-03-16T12:22:45;3.92;;;2.50;;
15764;SDS011;7983;50.744;7.086;2023-03-16T12:25:33;3.58;;;2.33;;
15764;SDS011;7983;50.744;7.086;2023-03-16T12:28:02;3.30;;;2.40;;
15764;SDS011;7983;50.744;7.086;2023-03-16T12:49:41;3.53;;;2.13;;
15764;SDS011;7983;50.744;7.086;2023-03-16T12:52:08;2.58;;;1.92;;
15764;SDS011;7983;50.744;7.086;2023-03-16T12:54:47;2.35;;;1.67;;
15764;SDS011;7983;50.744;7.086;2023-03-16T12:57:36;2.42;;;1.77;;
15764;SDS011;7983;50.744;7.086;2023-03-16T13:00:07;2.60;;;1.98;;
15764;SDS011;7983;50.744;7.086;2023-03-16T13:02:35;2.50;;;1.83;;
15764;SDS011;7983;50.744;7.086;2023-03-16T13:05:36;2.00;;;1.60;;
15764;SDS011;7983;50.744;7.086;2023-03-16T13:08:24;3.83;;;2.03;;
15764;SDS011;7983;50.744;7.086;2023-03-16T13:14:08;1.95;;;1.50;;
15764;SDS011;7983;50.744;7.086;2023-03-16T13:16:37;2.28;;;1.60;;
15764;SDS011;7983;50.744;7.086;2023-03-16T13:21:46;2.35;;;1.77;;
15764;SDS011;7983;50.744;7.086;2023-03-16T13:26:57;2.25;;;1.60;;
15764;SDS011;7983;50.744;7.086;2023-03-16T13:29:31;3.50;;;2.00;;
15764;SDS011;7983;50.744;7.086;2023-03-16T13:31:58;2.38;;;1.60;;
15764;SDS011;7983;50.744;7.086;2023-03-16T13:34:34;2.97;;;1.60;;
15764;SDS011;7983;50.744;7.086;2023-03-16T13:37:12;3.33;;;1.95;;
15764;SDS011;7983;50.744;7.086;2023-03-16T13:39:49;3.70;;;1.73;;
15764;SDS011;7983;50.744;7.086;2023-03-16T13:42:18;2.10;;;1.80;;
15764;SDS011;7983;50.744;7.086;2023-03-16T13:44:52;4.70;;;1.98;;
15764;SDS011;7983;50.744;7.086;2023-03-16T13:47:19;1.92;;;1.70;;
15764;SDS011;7983;50.744;7.086;2023-03-16T13:49:46;2.97;;;1.77;;
15764;SDS011;7983;50.744;7.086;2023-03-16T13:54:59;2.47;;;1.83;;
15764;SDS011;7983;50.744;7.086;2023-03-16T13:57:27;2.53;;;1.80;;
15764;SDS011;7983;50.744;7.086;2023-03-16T14:02:43;4.38;;;1.85;;
15764;SDS011;7983;50.744;7.086;2023-03-16T14:05:15;4.22;;;1.98;;
15764;SDS011;7983;50.744;7.086;2023-03-16T14:07:47;2.38;;;1.63;;
15764;SDS011;7983;50.744;7.086;2023-03-16T14:10:17;2.47;;;1.60;;
15764;SDS011;7983;50.744;7.086;2023-03-16T14:12:53;3.70;;;2.40;;
15764;SDS011;7983;50.744;7.086;2023-03-16T14:15:34;4.70;;;1.95;;
15764;SDS011;7983;50.744;7.086;2023-03-16T14:18:15;3.03;;;2.00;;
15764;SDS011;7983;50.744;7.086;2023-03-16T14:20:46;2.65;;;1.75;;
15764;SDS011;7983;50.744;7.086;2023-03-16T14:23:23;1.70;;;1.40;;
15764;SDS011;7983;50.744;7.086;2023-03-16T14:25:57;2.10;;;1.60;;
15764;SDS011;7983;50.744;7.086;2023-03-16T14:28:26;2.92;;;2.03;;
15764;SDS011;7983;50.744;7.086;2023-03-16T14:31:04;2.15;;;1.70;;
15764;SDS011;7983;50.744;7.086;2023-03-16T14:33:36;3.13;;;2.03;;
15764;SDS011;7983;50.744;7.086;2023-03-16T14:36:11;3.92;;;1.90;;
15764;SDS011;7983;50.744;7.086;2023-03-16T14:38:38;2.88;;;1.60;;
15764;SDS011;7983;50.744;7.086;2023-03-16T14:41:24;3.15;;;1.92;;
15764;SDS011;7983;50.744;7.086;2023-03-16T14:43:57;3.20;;;1.88;;
15764;SDS011;7983;50.744;7.086;2023-03-16T14:46:26;2.50;;;1.85;;
15764;SDS011;7983;50.744;7.086;2023-03-16T14:49:05;2.65;;;2.10;;
15764;SDS011;7983;50.744;7.086;2023-03-16T14:51:32;2.47;;;1.90;;
15764;SDS011;7983;50.744;7.086;2023-03-16T14:54:01;3.30;;;2.13;;
15764;SDS011;7983;50.744;7.086;2023-03-16T14:56:34;3.35;;;2.15;;
15764;SDS011;7983;50.744;7.086;2023-03-16T14:59:00;2.97;;;2.40;;
15764;SDS011;7983;50.744;7.086;2023-03-16T15:01:31;2.63;;;1.80;;
15764;SDS011;7983;50.744;7.086;2023-03-16T15:03:57;2.55;;;2.00;;
15764;SDS011;7983;50.744;7.086;2023-03-16T15:06:23;3.10;;;2.28;;
15764;SDS011;7983;50.744;7.086;2023-03-16T15:08:49;3.72;;;2.33;;
15764;SDS011;7983;50.744;7.086;2023-03-16T15:11:17;2.63;;;2.10;;
15764;SDS011;7983;50.744;7.086;2023-03-16T15:13:46;3.28;;;2.30;;
15764;SDS011;7983;50.744;7.086;2023-03-16T15:16:12;3.40;;;2.50;;
15764;SDS011;7983;50.744;7.086;2023-03-16T15:18:38;5.47;;;2.20;;
15764;SDS011;7983;50.744;7.086;2023-03-16T15:21:18;3.22;;;2.13;;
15764;SDS011;7983;50.744;7.086;2023-03-16T15:23:48;3.22;;;2.60;;
15764;SDS011;7983;50.744;7.086;2023-03-16T15:26:18;3.97;;;2.20;;
15764;SDS011;7983;50.744;7.086;2023-03-16T15:28:51;3.95;;;2.17;;
15764;SDS011;7983;50.744;7.086;2023-03-16T15:31:21;5.85;;;3.00;;
15764;SDS011;7983;50.744;7.086;2023-03-16T15:33:50;3.47;;;2.53;;
15764;SDS011;7983;50.744;7.086;2023-03-16T15:36:17;3.92;;;2.58;;
15764;SDS011;7983;50.744;7.086;2023-03-16T15:38:46;3.95;;;2.42;;
15764;SDS011;7983;50.744;7.086;2023-03-16T15:41:16;2.85;;;2.30;;
15764;SDS011;7983;50.744;7.086;2023-03-16T15:43:44;3.10;;;2.08;;
15764;SDS011;7983;50.744;7.086;2023-03-16T15:46:12;2.90;;;2.40;;
15764;SDS011;7983;50.744;7.086;2023-03-16T15:48:41;3.22;;;2.42;;
15764;SDS011;7983;50.744;7.086;2023-03-16T15:51:13;3.15;;;2.45;;
15764;SDS011;7983;50.744;7.086;2023-03-16T15:54:03;3.47;;;2.60;;
15764;SDS011;7983;50.744;7.086;2023-03-16T15:56:33;3.58;;;2.50;;
15764;SDS011;7983;50.744;7.086;2023-03-16T15:59:03;4.57;;;2.67;;
15764;SDS011;7983;50.744;7.086;2023-03-16T16:01:40;4.55;;;3.10;;
15764;SDS011;7983;50.744;7.086;2023-03-16T16:04:12;3.13;;;2.53;;
15764;SDS011;7983;50.744;7.086;2023-03-16T16:06:39;4.78;;;2.90;;
15764;SDS011;7983;50.744;7.086;2023-03-16T16:09:11;3.97;;;2.60;;
15764;SDS011;7983;50.744;7.086;2023-03-16T16:11:40;3.58;;;2.45;;
15764;SDS011;7983;50.744;7.086;2023-03-16T16:14:08;3.22;;;2.38;;
15764;SDS011;7983;50.744;7.086;2023-03-16T16:16:44;4.63;;;2.70;;
15764;SDS011;7983;50.744;7.086;2023-03-16T16:19:13;2.67;;;2.10;;
15764;SDS011;7983;50.744;7.086;2023-03-16T16:21:42;3.70;;;2.70;;
15764;SDS011;7983;50.744;7.086;2023-03-16T16:24:11;3.45;;;2.45;;
15764;SDS011;7983;50.744;7.086;2023-03-16T16:26:42;3.92;;;2.85;;
15764;SDS011;7983;50.744;7.086;2023-03-16T16:29:13;3.88;;;2.50;;
15764;SDS011;7983;50.744;7.086;2023-03-16T16:31:40;4.97;;;3.28;;
15764;SDS011;7983;50.744;7.086;2023-03-16T16:34:10;3.97;;;2.95;;
15764;SDS011;7983;50.744;7.086;2023-03-16T16:36:45;3.50;;;2.90;;
15764;SDS011;7983;50.744;7.086;2023-03-16T16:39:12;4.78;;;2.80;;
15764;SDS011;7983;50.744;7.086;2023-03-16T16:41:43;4.35;;;3.00;;
15764;SDS011;7983;50.744;7.086;2023-03-16T16:44:42;5.70;;;3.60;;
15764;SDS011;7983;50.744;7.086;2023-03-16T16:47:00;4.28;;;3.10;;
15764;SDS011;7983;50.744;7.086;2023-03-16T16:49:28;4.40;;;2.63;;
15764;SDS011;7983;50.744;7.086;2023-03-16T16:51:54;5.90;;;3.40;;
15764;SDS011;7983;50.744;7.086;2023-03-16T16:54:24;3.00;;;2.70;;
15764;SDS011;7983;50.744;7.086;2023-03-16T16:56:55;4.60;;;2.78;;